Latest Weather Observations for Batchelor

IDD60901

Issued at 5:31 pm CST Friday 4 September 2015 (issued every 10 minutes, with the page automatically refreshed every 10 minutes)

About weather observations | Map of Darwin area stations | Latest observations for Darwin area | Other Formats
Station Details ID: 014272 Name: BATCHELOR AIRPORT Lat: -13.05 Lon: 131.03 Height: 104.0 m
Data from the previous 72 hours. | See also: Recent months at Batchelor
Date/Time
CST
Tmp

°C
App
Tmp
°C
Dew
Point
°C
Rel
Hum
%
Delta-T

°C
Wind Press
QNH
hPa
Press
MSL
hPa
Rain
since
9 am
mm
Dir
 
Spd
km/h
Gust
km/h
Spd
kts
Gust
kts
04/05:30pm 34.6 33.6 12.3 26 13.4 ESE 9 13 5 7 1013.0 1012.3 0.0
04/05:00pm 35.0 33.9 12.0 25 13.8 SE 9 15 5 8 1012.8 1012.1 0.0
04/04:30pm 34.2 32.5 12.5 27 13.0 E 13 20 7 11 1012.8 1012.1 0.0
04/04:00pm 35.1 33.9 12.7 26 13.5 E 11 17 6 9 1012.8 1012.1 0.0
04/03:30pm 35.6 34.7 13.7 27 13.5 ESE 11 19 6 10 1013.0 1012.3 0.0
04/03:00pm 35.5 35.5 14.2 28 13.2 SSE 7 20 4 11 1013.3 1012.6 0.0
04/02:30pm 33.3 32.8 13.9 31 11.9 ESE 9 15 5 8 1013.8 1013.1 0.0
04/02:00pm 33.5 33.2 14.5 31 11.7 NNE 9 19 5 10 1014.2 1013.5 0.0
04/01:30pm 34.9 33.9 14.7 29 12.6 NNE 13 24 7 13 1014.9 1014.2 0.0
04/01:00pm 33.7 33.9 15.7 34 11.3 ENE 9 17 5 9 1015.3 1014.6 0.0
04/12:30pm 33.1 33.0 16.9 38 10.3 E 13 28 7 15 1015.9 1015.2 0.0
04/12:00pm 31.9 32.6 17.0 41 9.5 ENE 9 19 5 10 1016.7 1016.0 0.0
04/11:30am 31.0 32.4 17.7 45 8.5 N 7 15 4 8 1017.2 1016.5 0.0
04/11:00am 30.2 30.9 18.0 48 7.8 NE 11 19 6 10 1017.7 1017.0 0.0
04/10:30am 30.4 31.0 17.8 46 8.1 ENE 11 19 6 10 1017.9 1017.2 0.0
04/10:00am 29.5 30.3 17.3 47 7.7 NE 9 17 5 9 1017.9 1017.2 0.0
04/09:30am 28.2 29.9 18.6 56 6.2 ENE 7 11 4 6 1018.0 1017.3 0.0
04/09:00am 27.6 29.7 19.4 61 5.3 NE 7 11 4 6 1017.9 1017.2 0.0
04/08:30am 26.1 29.1 20.0 69 4.0 NE 4 6 2 3 1017.6 1016.9 0.0
04/08:00am 23.9 27.8 20.4 81 2.3 CALM 0 0 0 0 1017.4 1016.7 0.0
04/07:30am 22.1 26.1 20.6 91 1.0 CALM 0 0 0 0 1017.1 1016.4 0.0
04/07:00am 21.0 24.4 19.3 90 1.1 CALM 0 0 0 0 1016.8 1016.1 0.0
04/06:30am 21.2 24.7 19.5 90 1.1 CALM 0 0 0 0 1016.6 1015.9 0.0
04/06:00am 21.4 24.8 19.3 88 1.3 CALM 0 2 0 1 1016.3 1015.6 0.0
04/05:30am 22.0 24.9 19.9 88 1.3 ENE 4 6 2 3 1016.0 1015.3 0.0
04/05:00am 21.8 24.4 19.2 85 1.7 N 4 7 2 4 1015.7 1015.0 0.0
04/04:30am 21.5 24.6 18.7 84 1.8 CALM 0 0 0 0 1015.5 1014.8 0.0
04/04:00am 21.3 24.2 18.3 83 1.9 CALM 0 6 0 3 1015.3 1014.6 0.0
04/03:30am 21.6 24.2 17.6 78 2.5 CALM 0 0 0 0 1015.1 1014.4 0.0
04/03:00am 21.8 24.4 17.4 76 2.7 CALM 0 2 0 1 1015.2 1014.5 0.0
04/02:30am 22.3 25.0 17.7 75 2.9 CALM 0 2 0 1 1015.4 1014.7 0.0
04/02:00am 22.1 24.5 17.0 73 3.1 CALM 0 0 0 0 1015.8 1015.1 0.0
04/01:30am 22.2 24.3 16.2 69 3.6 CALM 0 0 0 0 1015.9 1015.2 0.0
04/01:00am 23.4 25.5 16.2 64 4.4 CALM 0 0 0 0 1016.2 1015.5 0.0
04/12:30am 23.9 25.2 16.2 62 4.7 N 4 6 2 3 1016.4 1015.7 0.0
04/12:00am 23.8 24.6 15.8 61 4.9 WNW 6 7 3 4 1016.3 1015.6 0.0
 
Date/Time
CST
Tmp

°C
App
Tmp
°C
Dew
Point
°C
Rel
Hum
%
Delta-T

°C
Wind Press
QNH
hPa
Press
MSL
hPa
Rain
since
9 am
mm
Dir
 
Spd
km/h
Gust
km/h
Spd
kts
Gust
kts
03/11:30pm 24.6 25.9 16.1 59 5.2 WNW 4 6 2 3 1016.1 1015.4 0.0
03/11:00pm 24.8 26.0 16.0 58 5.4 WSW 4 4 2 2 1015.8 1015.1 0.0
03/10:30pm 25.2 26.7 16.6 59 5.3 WSW 4 6 2 3 1015.9 1015.2 0.0
03/10:00pm 25.5 27.0 16.6 58 5.5 WNW 4 4 2 2 1015.8 1015.1 0.0
03/09:30pm 26.2 27.2 16.4 54 6.1 WNW 6 6 3 3 1015.7 1015.0 0.0
03/09:00pm 26.9 28.0 16.5 53 6.5 NW 6 6 3 3 1015.6 1014.9 0.0
03/08:30pm 27.6 28.4 17.2 53 6.5 NW 9 13 5 7 1015.1 1014.4 0.0
03/08:00pm 28.0 28.9 17.5 52 6.6 NW 9 13 5 7 1014.9 1014.2 0.0
03/07:30pm 28.9 29.6 17.1 49 7.4 NW 9 13 5 7 1014.3 1013.6 0.0
03/07:00pm 29.6 29.3 16.4 45 8.3 NW 13 20 7 11 1013.9 1013.2 0.0
03/06:30pm 30.8 30.6 16.8 43 8.9 NW 13 20 7 11 1013.5 1012.8 0.0
03/06:00pm 32.4 31.4 16.7 39 10.0 NW 17 26 9 14 1012.9 1012.2 0.0
03/05:30pm 35.1 34.8 11.5 24 14.0 N 4 6 2 3 1012.4 1011.8 0.0
03/05:00pm 35.6 35.3 11.3 23 14.4 ENE 4 9 2 5 1012.3 1011.7 0.0
03/04:30pm 36.3 35.0 11.2 22 14.9 E 9 19 5 10 1012.2 1011.6 0.0
03/04:00pm 34.8 34.6 11.9 25 13.7 SW 4 7 2 4 1012.3 1011.7 0.0
03/03:30pm 36.6 35.5 12.1 23 14.8 ENE 9 13 5 7 1012.4 1011.8 0.0
03/03:00pm 36.1 35.3 11.7 23 14.6 NNE 7 15 4 8 1012.8 1012.1 0.0
03/02:30pm 35.3 35.1 11.7 24 14.1 NE 4 7 2 4 1013.2 1012.5 0.0
03/02:00pm 35.1 33.3 12.1 25 13.8 NNE 13 20 7 11 1013.6 1012.9 0.0
03/01:30pm 35.1 33.7 13.3 27 13.3 NE 13 19 7 10 1014.0 1013.3 0.0
03/01:00pm 33.9 33.8 13.4 29 12.5 NE 6 9 3 5 1014.6 1013.9 0.0
03/12:30pm 34.0 34.3 13.5 29 12.5 NNE 4 11 2 6 1015.1 1014.4 0.0
03/12:00pm 32.7 32.2 13.8 31 11.5 NNW 9 15 5 8 1015.7 1015.0 0.0
03/11:30am 32.6 32.8 14.7 34 11.0 NNW 7 19 4 10 1016.2 1015.5 0.0
03/11:00am 31.9 31.1 14.1 34 10.9 NNW 11 17 6 9 1016.7 1016.0 0.0
03/10:30am 30.9 31.3 15.3 38 9.6 WNW 7 13 4 7 1017.1 1016.4 0.0
03/10:00am 30.3 31.7 17.4 46 8.2 WNW 6 11 3 6 1017.3 1016.6 0.0
03/09:30am 29.2 29.9 17.1 48 7.6 NNW 9 15 5 8 1017.4 1016.7 0.0
03/09:00am 27.8 30.1 19.8 61 5.2 NNW 7 9 4 5 1017.3 1016.6 0.0
03/08:30am 26.5 29.2 20.3 68 4.1 N 6 7 3 4 1017.0 1016.3 0.0
03/08:00am 24.2 27.8 19.7 76 2.9 CALM 0 0 0 0 1016.9 1016.2 0.0
03/07:30am 21.4 24.1 17.8 80 2.2 CALM 0 0 0 0 1016.5 1015.8 0.0
03/07:00am 20.0 22.3 16.8 82 1.9 CALM 0 2 0 1 1016.2 1015.5 0.0
03/06:30am 20.4 22.5 17.2 82 2.0 N 2 4 1 2 1016.0 1015.3 0.0
03/06:00am 20.2 22.5 16.8 81 2.1 CALM 0 0 0 0 1015.7 1015.0 0.0
03/05:30am 20.0 22.2 16.6 81 2.1 CALM 0 0 0 0 1015.3 1014.6 0.0
03/05:00am 20.2 21.6 16.4 79 2.3 N 4 6 2 3 1014.9 1014.2 0.0
03/04:30am 20.8 23.3 17.2 80 2.2 CALM 0 0 0 0 1014.6 1013.9 0.0
03/04:00am 21.1 23.5 17.1 78 2.5 CALM 0 0 0 0 1014.6 1013.9 0.0
03/03:30am 21.4 23.6 16.6 74 2.9 CALM 0 0 0 0 1014.6 1013.9 0.0
03/03:00am 21.6 23.7 16.3 72 3.2 CALM 0 0 0 0 1014.6 1013.9 0.0
03/02:30am 22.0 24.1 16.3 70 3.5 CALM 0 0 0 0 1014.7 1014.0 0.0
03/02:00am 22.9 25.1 16.4 67 4.0 CALM 0 0 0 0 1014.7 1014.0 0.0
03/01:30am 23.8 25.0 16.8 65 4.3 N 6 9 3 5 1014.8 1014.1 0.0
03/01:00am 23.9 24.8 16.2 62 4.7 N 6 9 3 5 1014.9 1014.2 0.0
03/12:30am 23.8 24.6 15.8 61 4.9 N 6 7 3 4 1014.9 1014.2 0.0
03/12:00am 24.1 25.0 15.1 57 5.4 NW 4 6 2 3 1014.8 1014.1 0.0
 
Date/Time
CST
Tmp

°C
App
Tmp
°C
Dew
Point
°C
Rel
Hum
%
Delta-T

°C
Wind Press
QNH
hPa
Press
MSL
hPa
Rain
since
9 am
mm
Dir
 
Spd
km/h
Gust
km/h
Spd
kts
Gust
kts
02/11:30pm 24.8 25.6 14.9 54 5.9 WNW 4 6 2 3 1014.9 1014.2 0.0
02/11:00pm 25.1 26.0 15.1 53 6.0 W 4 4 2 2 1015.0 1014.3 0.0
02/10:30pm 25.2 25.8 15.2 54 6.0 W 6 7 3 4 1014.9 1014.2 0.0
02/10:00pm 26.0 26.4 15.4 52 6.5 WSW 7 11 4 6 1014.8 1014.1 0.0
02/09:30pm 25.8 26.6 14.9 51 6.6 NW 4 6 2 3 1014.8 1014.1 0.0
02/09:00pm 26.4 26.8 14.8 49 7.0 WNW 6 9 3 5 1014.3 1013.6 0.0
02/08:30pm 27.0 26.8 14.7 47 7.4 NW 9 11 5 6 1014.1 1013.4 0.0
02/08:00pm 28.0 27.5 15.0 45 7.9 WNW 11 17 6 9 1013.6 1012.9 0.0
02/07:30pm 28.6 27.7 14.8 43 8.4 WNW 13 22 7 12 1012.9 1012.2 0.0
02/07:00pm 29.2 28.0 15.0 42 8.7 WNW 15 28 8 15 1012.4 1011.8 0.0
02/06:30pm 30.0 28.0 14.9 39 9.3 WNW 19 26 10 14 1012.1 1011.5 0.0
02/06:00pm 32.1 31.3 15.1 35 10.5 WNW 13 22 7 12 1011.6 1011.0 0.0
02/05:30pm 34.7 34.1 11.8 25 13.7 NE 6 13 3 7 1011.2 1010.6 0.0
02/05:00pm 35.0 34.7 11.4 24 14.0 N 4 7 2 4 1011.0 1010.4 0.0
02/04:30pm 33.8 33.2 11.6 26 13.1 ENE 6 7 3 4 1011.1 1010.5 0.0
02/04:00pm 33.9 33.3 12.3 27 12.9 NNE 7 13 4 7 1011.1 1010.5 0.0
02/03:30pm 35.4 34.8 12.4 25 13.9 NNW 7 13 4 7 1011.3 1010.7 0.0
02/03:00pm 35.1 34.6 12.7 26 13.6 NE 7 17 4 9 1011.6 1011.0 0.0
02/02:30pm 34.7 34.1 12.4 26 13.4 NNE 7 15 4 8 1012.2 1011.6 0.0
02/02:00pm 34.6 34.9 14.5 30 12.5 SW 6 13 3 7 1012.9 1012.2 0.0
02/01:30pm 33.6 32.9 13.1 29 12.4 NNW 9 13 5 7 1013.5 1012.8 0.0
02/01:00pm 33.3 34.1 14.8 32 11.5 ENE 4 13 2 7 1014.2 1013.5 0.0
02/12:30pm 31.9 32.4 15.0 36 10.4 SSW 6 15 3 8 1014.9 1014.2 0.0
02/12:00pm 32.3 32.2 14.9 35 10.7 NW 9 20 5 11 1015.4 1014.7 0.0
02/11:30am 31.8 32.2 15.3 37 10.2 WNW 7 17 4 9 1016.1 1015.4 0.0
02/11:00am 31.2 31.6 16.4 41 9.3 W 9 15 5 8 1016.7 1016.0 0.0
02/10:30am 30.3 31.2 16.7 44 8.6 NNW 7 13 4 7 1016.9 1016.2 0.0
02/10:00am 29.1 29.8 16.0 45 8.1 WSW 7 13 4 7 1017.1 1016.4 0.0
02/09:30am 28.1 29.7 17.9 54 6.5 SSW 6 9 3 5 1017.0 1016.3 0.0
02/09:00am 26.7 29.1 18.8 62 5.1 S 4 6 2 3 1016.8 1016.1 0.0
02/08:30am 26.1 29.4 20.0 69 4.0 ENE 2 4 1 2 1016.5 1015.8 0.0
02/08:00am 23.8 27.6 20.1 80 2.4 CALM 0 0 0 0 1016.2 1015.5 0.0
02/07:30am 21.0 24.4 19.3 90 1.1 CALM 0 0 0 0 1016.0 1015.3 0.0
02/07:00am 19.9 22.9 18.4 91 0.9 CALM 0 0 0 0 1015.5 1014.8 0.0
02/06:30am 19.7 22.4 17.8 89 1.2 CALM 0 0 0 0 1015.0 1014.3 0.0
02/06:00am 20.3 23.4 18.6 90 1.1 CALM 0 0 0 0 1014.6 1013.9 0.0
02/05:30am 20.4 23.5 18.7 90 1.1 CALM 0 0 0 0 1014.4 1013.7 0.0
02/05:00am 20.1 23.0 18.1 88 1.2 CALM 0 0 0 0 1014.4 1013.7 0.0
02/04:30am 20.7 23.7 18.5 87 1.4 CALM 0 0 0 0 1014.3 1013.6 0.0
02/04:00am 20.9 23.8 18.1 84 1.7 CALM 0 0 0 0 1014.4 1013.7 0.0
02/03:30am 21.4 24.6 18.8 85 1.6 CALM 0 2 0 1 1014.2 1013.5 0.0
02/03:00am 21.5 24.2 18.7 84 1.8 WSW 2 6 1 3 1014.1 1013.4 0.0
02/02:30am 22.1 25.3 18.9 82 2.0 CALM 0 0 0 0 1014.1 1013.4 0.0
02/02:00am 22.5 25.6 18.7 79 2.4 CALM 0 0 0 0 1014.2 1013.5 0.0
02/01:30am 22.9 25.5 18.4 76 2.8 WSW 2 2 1 1 1014.3 1013.6 0.0
02/01:00am 23.5 25.5 18.8 75 3.0 WSW 6 9 3 5 1014.4 1013.7 0.0
02/12:30am 23.6 25.9 18.5 73 3.2 W 4 6 2 3 1014.5 1013.8 0.0
02/12:00am 23.9 26.1 18.3 71 3.5 W 4 6 2 3 1014.5 1013.8 0.0
 
Date/Time
CST
Tmp

°C
App
Tmp
°C
Dew
Point
°C
Rel
Hum
%
Delta-T

°C
Wind Press
QNH
hPa
Press
MSL
hPa
Rain
since
9 am
mm
Dir
 
Spd
km/h
Gust
km/h
Spd
kts
Gust
kts
01/11:30pm 24.2 26.0 18.2 69 3.8 WSW 6 7 3 4 1014.5 1013.8 0.0
01/11:00pm 24.5 26.6 18.2 68 4.0 WSW 4 6 2 3 1014.5 1013.8 0.0
01/10:30pm 24.8 26.6 18.3 67 4.1 WSW 6 9 3 5 1014.3 1013.6 0.0
01/10:00pm 25.3 27.0 18.5 66 4.3 WSW 7 11 4 6 1014.2 1013.5 0.0
01/09:30pm 25.8 27.7 18.5 64 4.7 WSW 6 9 3 5 1014.0 1013.3 0.0
01/09:00pm 26.5 27.4 18.4 61 5.2 WSW 11 17 6 9 1013.7 1013.0 0.0
01/08:30pm 27.1 27.9 16.4 52 6.6 W 7 11 4 6 1013.4 1012.7 0.0
01/08:00pm 27.6 28.5 16.6 51 6.9 WNW 7 13 4 7 1013.0 1012.3 0.0
01/07:30pm 28.2 28.5 18.0 54 6.5 W 13 22 7 12 1012.5 1011.9 0.0
01/07:00pm 29.0 29.3 15.9 45 8.1 WNW 9 13 5 7 1012.1 1011.5 0.0
01/06:30pm 29.2 29.4 16.7 46 7.9 NW 11 17 6 9 1011.9 1011.3 0.0
01/06:00pm 29.5 28.4 17.3 47 7.7 NW 19 28 10 15 1011.5 1010.9 0.0

Latest Capital City Observations: Canberra | Sydney | Melbourne | Brisbane | Adelaide | Perth | Hobart | Darwin

Other Formats:

Comma delimited format used in spreadsheet applications
http://www.bom.gov.au/fwo/IDD60901/IDD60901.94125.axf

JavaScript Object Notation format (JSON) in row-major order
http://www.bom.gov.au/fwo/IDD60901/IDD60901.94125.json